createdAt,value
2018-01-05T00:00:38.194Z,8.28
2018-01-05T00:01:38.763Z,8.28
2018-01-05T00:02:39.341Z,8.28
2018-01-05T00:03:39.916Z,8.30
2018-01-05T00:04:40.485Z,8.19
2018-01-05T00:05:41.056Z,8.24
2018-01-05T00:06:41.626Z,8.28
2018-01-05T00:07:42.208Z,8.20
2018-01-05T00:08:42.778Z,8.23
2018-01-05T00:09:43.347Z,8.30
2018-01-05T00:10:43.918Z,8.41
2018-01-05T00:11:44.490Z,8.31
2018-01-05T00:12:45.059Z,8.33
2018-01-05T00:13:45.630Z,8.28
2018-01-05T00:14:46.200Z,8.31
2018-01-05T00:15:46.770Z,8.30
2018-01-05T00:16:47.353Z,8.16
2018-01-05T00:17:47.923Z,8.12
2018-01-05T00:18:48.494Z,8.15
2018-01-05T00:19:49.063Z,8.23
2018-01-05T00:20:49.635Z,8.15
2018-01-05T00:21:50.205Z,8.19
2018-01-05T00:22:50.780Z,8.15
2018-01-05T00:23:51.358Z,8.36
2018-01-05T00:24:51.930Z,8.23
2018-01-05T00:25:52.500Z,8.30
2018-01-05T00:26:53.071Z,8.33
2018-01-05T00:27:53.644Z,8.34
2018-01-05T00:28:54.213Z,8.31
2018-01-05T00:29:54.784Z,8.24
2018-01-05T00:30:55.353Z,8.33
2018-01-05T00:31:55.922Z,8.37
2018-01-05T00:32:56.505Z,8.31
2018-01-05T00:33:57.075Z,8.28
2018-01-05T00:34:57.644Z,8.31
2018-01-05T00:35:58.213Z,8.33
2018-01-05T00:36:58.783Z,8.28
2018-01-05T00:37:59.365Z,8.33
2018-01-05T00:38:59.934Z,8.30
2018-01-05T00:40:00.506Z,8.27
2018-01-05T00:41:01.077Z,8.30
2018-01-05T00:42:01.647Z,8.24
2018-01-05T00:43:02.218Z,8.27
2018-01-05T00:44:02.786Z,8.31
2018-01-05T00:45:03.355Z,8.34
2018-01-05T00:46:03.929Z,8.26
2018-01-05T00:47:04.510Z,8.30
2018-01-05T00:48:05.080Z,8.31
2018-01-05T00:49:05.652Z,8.23
2018-01-05T00:50:06.224Z,8.30
2018-01-05T00:51:06.794Z,8.24
2018-01-05T00:52:07.362Z,8.34
2018-01-05T00:53:07.931Z,8.33
2018-01-05T00:54:08.551Z,8.30
2018-01-05T00:55:09.084Z,8.31
2018-01-05T00:56:09.651Z,8.19
2018-01-05T00:57:10.221Z,8.10
2018-01-05T00:58:10.789Z,8.13
2018-01-05T00:59:11.358Z,8.16
2018-01-05T01:00:11.929Z,8.13
2018-01-05T01:01:12.499Z,8.15
2018-01-05T01:02:13.069Z,8.10
2018-01-05T01:03:13.639Z,8.13
2018-01-05T01:04:14.209Z,8.16
2018-01-05T01:05:14.780Z,8.13
2018-01-05T01:06:15.351Z,8.15
2018-01-05T01:07:15.921Z,8.19
2018-01-05T01:08:16.492Z,8.18
2018-01-05T01:09:17.061Z,8.15
2018-01-05T01:10:17.644Z,8.19
2018-01-05T01:11:18.214Z,8.12
2018-01-05T01:12:18.782Z,8.13
2018-01-05T01:13:19.353Z,8.16
2018-01-05T01:14:19.921Z,8.10
2018-01-05T01:15:20.491Z,8.08
2018-01-05T01:16:21.064Z,8.03
2018-01-05T01:17:21.649Z,8.08
2018-01-05T01:18:22.219Z,8.01
2018-01-05T01:19:22.790Z,8.00
2018-01-05T01:20:23.359Z,8.05
2018-01-05T01:21:23.929Z,8.05
2018-01-05T01:22:24.497Z,7.98
2018-01-05T01:23:25.080Z,8.03
2018-01-05T01:24:25.649Z,8.01
2018-01-05T01:25:26.218Z,7.94
2018-01-05T01:26:26.788Z,7.95
2018-01-05T01:27:27.356Z,7.88
2018-01-05T01:28:27.925Z,7.95
2018-01-05T01:29:28.497Z,7.90
2018-01-05T01:30:29.066Z,7.93
2018-01-05T01:31:29.638Z,7.90
2018-01-05T01:32:30.208Z,7.83
2018-01-05T01:33:30.778Z,7.77
2018-01-05T01:34:31.350Z,7.85
2018-01-05T01:35:31.921Z,7.88
2018-01-05T01:36:32.492Z,7.76
2018-01-05T01:37:33.061Z,7.82
2018-01-05T01:38:33.651Z,7.72
2018-01-05T01:39:34.233Z,7.73
2018-01-05T01:40:34.804Z,7.76
2018-01-05T01:41:35.372Z,7.75
2018-01-05T01:42:35.942Z,7.72
2018-01-05T01:43:36.510Z,7.72
2018-01-05T01:44:37.098Z,7.69
2018-01-05T01:45:37.663Z,7.73
2018-01-05T01:46:38.234Z,7.69
2018-01-05T01:47:38.803Z,7.66
2018-01-05T01:48:39.374Z,7.51
2018-01-05T01:49:39.944Z,7.56
2018-01-05T01:50:40.514Z,7.54
2018-01-05T01:51:41.085Z,7.67
2018-01-05T01:52:41.653Z,7.57
2018-01-05T01:53:42.225Z,7.56
2018-01-05T01:54:42.796Z,7.57
2018-01-05T01:55:43.392Z,7.51
2018-01-05T01:56:43.934Z,7.51
2018-01-05T01:57:44.505Z,7.53
2018-01-05T01:58:45.073Z,7.57
2018-01-05T01:59:45.644Z,7.63
2018-01-05T02:00:46.215Z,7.53
2018-01-05T02:01:46.785Z,7.50
2018-01-05T02:02:47.370Z,7.58
2018-01-05T02:03:47.943Z,7.50
2018-01-05T02:04:48.512Z,7.53
2018-01-05T02:05:49.080Z,7.54
2018-01-05T02:06:49.648Z,7.61
2018-01-05T02:07:50.219Z,7.69
2018-01-05T02:08:50.791Z,7.58
2018-01-05T02:09:51.359Z,7.67
2018-01-05T02:10:51.930Z,7.56
2018-01-05T02:11:52.500Z,7.57
2018-01-05T02:12:53.069Z,7.47
2018-01-05T02:13:53.638Z,7.53
2018-01-05T02:14:54.208Z,7.58
2018-01-05T02:15:54.785Z,7.54
2018-01-05T02:16:55.364Z,7.42
2018-01-05T02:17:55.934Z,7.43
2018-01-05T02:18:56.506Z,7.47
2018-01-05T02:19:57.090Z,7.42
2018-01-05T02:20:57.659Z,7.48
2018-01-05T02:21:58.230Z,7.47
2018-01-05T02:22:58.800Z,7.42
2018-01-05T02:23:59.369Z,7.39
2018-01-05T02:24:59.942Z,7.40
2018-01-05T02:26:00.511Z,7.48
2018-01-05T02:27:01.082Z,7.42
2018-01-05T02:28:01.650Z,7.45
2018-01-05T02:29:02.219Z,7.43
2018-01-05T02:30:02.791Z,7.42
2018-01-05T02:31:03.361Z,7.50
2018-01-05T02:32:03.932Z,7.45
2018-01-05T02:33:04.500Z,7.50
2018-01-05T02:34:05.084Z,7.35
2018-01-05T02:35:05.655Z,7.29
2018-01-05T02:36:06.225Z,7.31
2018-01-05T02:37:06.794Z,7.47
2018-01-05T02:38:07.364Z,7.42
2018-01-05T02:39:07.934Z,7.40
2018-01-05T02:40:08.502Z,7.39
2018-01-05T02:41:09.087Z,7.31
2018-01-05T02:42:09.659Z,7.31
2018-01-05T02:43:10.230Z,7.28
2018-01-05T02:44:10.801Z,7.33
2018-01-05T02:45:11.370Z,7.32
2018-01-05T02:46:11.940Z,7.31
2018-01-05T02:47:12.513Z,7.36
2018-01-05T02:48:13.096Z,7.33
2018-01-05T02:49:13.667Z,7.32
2018-01-05T02:50:14.237Z,7.42
2018-01-05T02:51:14.821Z,7.40
2018-01-05T02:52:15.393Z,7.29
2018-01-05T02:53:15.961Z,7.43
2018-01-05T02:54:16.547Z,7.42
2018-01-05T02:55:17.117Z,7.42
2018-01-05T02:56:17.687Z,7.47
2018-01-05T02:57:18.256Z,7.33
2018-01-05T02:58:18.825Z,7.42
2018-01-05T02:59:19.396Z,7.28
2018-01-05T03:00:19.966Z,7.45
2018-01-05T03:01:20.536Z,7.38
2018-01-05T03:02:21.120Z,7.48
2018-01-05T03:03:21.691Z,7.51
2018-01-05T03:04:22.277Z,7.50
2018-01-05T03:05:22.844Z,7.43
2018-01-05T03:06:23.415Z,7.50
2018-01-05T03:07:23.984Z,7.51
2018-01-05T03:08:24.554Z,7.61
2018-01-05T03:09:25.126Z,7.66
2018-01-05T03:10:25.696Z,7.73
2018-01-05T03:11:26.267Z,7.72
2018-01-05T03:12:26.837Z,7.76
2018-01-05T03:13:27.406Z,7.70
2018-01-05T03:14:27.977Z,7.67
2018-01-05T03:15:28.547Z,7.70
2018-01-05T03:16:29.120Z,7.66
2018-01-05T03:17:29.688Z,7.73
2018-01-05T03:18:30.259Z,7.76
2018-01-05T03:19:30.829Z,7.77
2018-01-05T03:20:31.400Z,7.69
2018-01-05T03:21:31.972Z,7.72
2018-01-05T03:22:32.540Z,7.73
2018-01-05T03:23:33.112Z,7.66
2018-01-05T03:24:33.698Z,7.69
2018-01-05T03:25:34.268Z,7.75
2018-01-05T03:26:34.837Z,7.83
2018-01-05T03:27:35.405Z,7.85
2018-01-05T03:28:35.976Z,7.87
2018-01-05T03:29:36.548Z,7.83
2018-01-05T03:30:37.118Z,7.79
2018-01-05T03:31:37.686Z,7.80
2018-01-05T03:32:38.271Z,7.82
2018-01-05T03:33:38.840Z,7.88
2018-01-05T03:34:39.411Z,7.90
2018-01-05T03:35:39.980Z,7.83
2018-01-05T03:36:40.553Z,7.83
2018-01-05T03:37:41.120Z,7.83
2018-01-05T03:38:41.704Z,7.83
2018-01-05T03:39:42.275Z,7.94
2018-01-05T03:40:42.846Z,7.83
2018-01-05T03:41:43.416Z,8.00
2018-01-05T03:42:43.987Z,7.97
2018-01-05T03:43:44.556Z,7.97
2018-01-05T03:44:45.125Z,7.94
2018-01-05T03:45:45.701Z,7.95
2018-01-05T03:46:46.281Z,8.06
2018-01-05T03:47:46.852Z,7.98
2018-01-05T03:48:47.437Z,7.97
2018-01-05T03:49:48.009Z,7.97
2018-01-05T03:50:48.579Z,8.06
2018-01-05T03:51:49.152Z,8.05
2018-01-05T03:52:49.722Z,8.06
2018-01-05T03:53:50.292Z,7.98
2018-01-05T03:54:50.864Z,8.06
2018-01-05T03:55:51.435Z,8.10
2018-01-05T03:56:52.008Z,8.00
2018-01-05T03:57:52.592Z,8.06
2018-01-05T03:58:53.176Z,8.05
2018-01-05T03:59:53.745Z,8.06
2018-01-05T04:00:54.317Z,8.13
2018-01-05T04:01:54.902Z,8.06
2018-01-05T04:02:55.491Z,7.98
2018-01-05T04:03:56.073Z,8.03
2018-01-05T04:04:56.641Z,8.06
2018-01-05T04:05:57.214Z,8.16
2018-01-05T04:06:57.799Z,8.08
2018-01-05T04:07:58.369Z,8.06
2018-01-05T04:08:58.940Z,8.01
2018-01-05T04:09:59.511Z,8.05
2018-01-05T04:11:00.080Z,8.06
2018-01-05T04:12:00.651Z,8.05
2018-01-05T04:13:01.222Z,8.03
2018-01-05T04:14:01.794Z,8.05
2018-01-05T04:15:02.363Z,7.94
2018-01-05T04:16:02.933Z,8.09
2018-01-05T04:17:03.501Z,8.16
2018-01-05T04:18:04.073Z,8.13
2018-01-05T04:19:04.645Z,8.12
2018-01-05T04:20:05.215Z,7.95
2018-01-05T04:21:05.798Z,7.97
2018-01-05T04:22:06.370Z,8.03
2018-01-05T04:23:06.941Z,8.08
2018-01-05T04:24:07.511Z,7.98
2018-01-05T04:25:08.081Z,8.06
2018-01-05T04:26:08.651Z,8.10
2018-01-05T04:27:09.226Z,8.15
2018-01-05T04:28:09.792Z,8.15
2018-01-05T04:29:10.363Z,8.05
2018-01-05T04:30:10.934Z,8.05
2018-01-05T04:31:11.503Z,8.08
2018-01-05T04:32:12.074Z,8.12
2018-01-05T04:33:12.644Z,8.00
2018-01-05T04:34:13.217Z,7.98
2018-01-05T04:35:13.787Z,7.98
2018-01-05T04:36:14.357Z,7.88
2018-01-05T04:37:14.928Z,7.94
2018-01-05T04:38:15.499Z,7.94
2018-01-05T04:39:16.070Z,7.93
2018-01-05T04:40:16.640Z,7.97
2018-01-05T04:41:17.209Z,7.79
2018-01-05T04:42:17.794Z,7.88
2018-01-05T04:43:18.362Z,7.82
2018-01-05T04:44:18.931Z,7.85
2018-01-05T04:45:19.502Z,7.85
2018-01-05T04:46:20.073Z,7.88
2018-01-05T04:47:20.656Z,7.88
2018-01-05T04:48:21.225Z,7.82
2018-01-05T04:49:21.799Z,7.85
2018-01-05T04:50:22.368Z,7.82
2018-01-05T04:51:22.940Z,7.72
2018-01-05T04:52:23.508Z,7.72
2018-01-05T04:53:24.077Z,7.85
2018-01-05T04:54:24.647Z,7.85
2018-01-05T04:55:25.219Z,7.77
2018-01-05T04:56:25.790Z,7.75
2018-01-05T04:57:26.363Z,7.79
2018-01-05T04:58:26.933Z,7.73
2018-01-05T04:59:27.518Z,7.76
2018-01-05T05:00:28.088Z,7.72
2018-01-05T05:01:28.657Z,7.70
2018-01-05T05:02:29.242Z,7.83
2018-01-05T05:03:29.812Z,7.80
2018-01-05T05:04:30.396Z,7.70
2018-01-05T05:05:30.965Z,7.77
2018-01-05T05:06:31.536Z,7.69
2018-01-05T05:07:32.108Z,7.75
2018-01-05T05:08:32.679Z,7.69
2018-01-05T05:09:33.250Z,7.77
2018-01-05T05:10:33.819Z,7.75
2018-01-05T05:11:34.388Z,7.66
2018-01-05T05:12:34.958Z,7.58
2018-01-05T05:13:35.529Z,7.66
2018-01-05T05:14:36.100Z,7.53
2018-01-05T05:15:36.670Z,7.56
2018-01-05T05:16:37.240Z,7.58
2018-01-05T05:17:37.810Z,7.53
2018-01-05T05:18:38.380Z,7.43
2018-01-05T05:19:38.952Z,7.50
2018-01-05T05:20:39.522Z,7.47
2018-01-05T05:21:40.097Z,7.42
2018-01-05T05:22:40.668Z,7.31
2018-01-05T05:23:41.234Z,7.36
2018-01-05T05:24:41.808Z,7.31
2018-01-05T05:25:42.374Z,7.31
2018-01-05T05:26:42.944Z,7.32
2018-01-05T05:27:43.513Z,7.31
2018-01-05T05:28:44.083Z,7.31
2018-01-05T05:29:44.653Z,7.29
2018-01-05T05:30:45.223Z,7.14
2018-01-05T05:31:45.792Z,7.20
2018-01-05T05:32:46.361Z,7.18
2018-01-05T05:33:46.932Z,7.17
2018-01-05T05:34:47.502Z,7.03
2018-01-05T05:35:48.074Z,7.05
2018-01-05T05:36:48.644Z,7.03
2018-01-05T05:37:49.217Z,7.06
2018-01-05T05:38:49.785Z,7.07
2018-01-05T05:39:50.356Z,7.06
2018-01-05T05:40:50.927Z,7.06
2018-01-05T05:41:51.500Z,7.02
2018-01-05T05:42:52.066Z,7.06
2018-01-05T05:43:52.640Z,7.02
2018-01-05T05:44:53.207Z,6.99
2018-01-05T05:45:53.790Z,7.07
2018-01-05T05:46:54.359Z,7.07
2018-01-05T05:47:54.932Z,7.03
2018-01-05T05:48:55.500Z,7.17
2018-01-05T05:49:56.068Z,7.02
2018-01-05T05:50:56.639Z,7.02
2018-01-05T05:51:57.209Z,7.05
2018-01-05T05:52:57.779Z,7.06
2018-01-05T05:53:58.363Z,7.05
2018-01-05T05:54:58.933Z,7.06
2018-01-05T05:55:59.503Z,7.11
2018-01-05T05:57:00.073Z,6.99
2018-01-05T05:58:00.644Z,7.10
2018-01-05T05:59:01.216Z,7.10
2018-01-05T06:00:01.785Z,7.06
2018-01-05T06:01:02.355Z,7.07
2018-01-05T06:02:02.924Z,7.06
2018-01-05T06:03:03.493Z,7.05
2018-01-05T06:04:04.063Z,7.07
2018-01-05T06:05:04.648Z,7.13
2018-01-05T06:06:05.218Z,7.17
2018-01-05T06:07:05.802Z,7.14
2018-01-05T06:08:06.387Z,7.18
2018-01-05T06:09:06.957Z,7.18
2018-01-05T06:10:07.528Z,7.35
2018-01-05T06:11:08.111Z,7.29
2018-01-05T06:12:08.694Z,7.29
2018-01-05T06:13:09.263Z,7.32
2018-01-05T06:14:09.833Z,7.32
2018-01-05T06:15:10.401Z,7.33
2018-01-05T06:16:10.973Z,7.33
2018-01-05T06:17:11.545Z,7.47
2018-01-05T06:18:12.113Z,7.43
2018-01-05T06:19:12.699Z,7.40
2018-01-05T06:20:13.268Z,7.53
2018-01-05T06:21:13.839Z,7.56
2018-01-05T06:22:14.409Z,7.51
2018-01-05T06:23:14.993Z,7.56
2018-01-05T06:24:15.563Z,7.58
2018-01-05T06:25:16.134Z,7.75
2018-01-05T06:26:16.707Z,7.73
2018-01-05T06:27:17.293Z,7.75
2018-01-05T06:28:17.863Z,7.87
2018-01-05T06:29:18.444Z,7.75
2018-01-05T06:30:19.019Z,7.80
2018-01-05T06:31:19.585Z,7.77
2018-01-05T06:32:20.156Z,7.82
2018-01-05T06:33:20.724Z,7.88
2018-01-05T06:34:21.311Z,7.88
2018-01-05T06:35:21.892Z,7.91
2018-01-05T06:36:22.468Z,7.85
2018-01-05T06:37:23.034Z,7.87
2018-01-05T06:38:23.604Z,7.80
2018-01-05T06:39:24.175Z,7.90
2018-01-05T06:40:24.745Z,7.90
2018-01-05T06:41:25.317Z,7.75
2018-01-05T06:42:25.887Z,7.75
2018-01-05T06:43:26.458Z,7.70
2018-01-05T06:44:27.028Z,7.69
2018-01-05T06:45:27.613Z,7.60
2018-01-05T06:46:28.185Z,7.61
2018-01-05T06:47:28.752Z,7.57
2018-01-05T06:48:29.324Z,7.54
2018-01-05T06:49:29.894Z,7.56
2018-01-05T06:50:30.477Z,7.56
2018-01-05T06:51:31.048Z,7.47
2018-01-05T06:52:31.620Z,7.42
2018-01-05T06:53:32.190Z,7.47
2018-01-05T06:54:32.765Z,7.35
2018-01-05T06:55:33.329Z,7.40
2018-01-05T06:56:33.898Z,7.33
2018-01-05T06:57:34.469Z,7.32
2018-01-05T06:58:35.041Z,7.36
2018-01-05T06:59:35.612Z,7.35
2018-01-05T07:00:36.182Z,7.31
2018-01-05T07:01:36.752Z,7.25
2018-01-05T07:02:37.325Z,7.25
2018-01-05T07:03:37.895Z,7.11
2018-01-05T07:04:38.467Z,7.18
2018-01-05T07:05:39.037Z,7.21
2018-01-05T07:06:39.606Z,7.20
2018-01-05T07:07:40.178Z,7.10
2018-01-05T07:08:40.750Z,7.02
2018-01-05T07:09:41.331Z,7.10
2018-01-05T07:10:41.904Z,7.11
2018-01-05T07:11:42.473Z,7.06
2018-01-05T07:12:43.044Z,7.05
2018-01-05T07:13:43.616Z,7.03
2018-01-05T07:14:44.183Z,7.02
2018-01-05T07:15:44.755Z,7.06
2018-01-05T07:16:45.326Z,7.05
2018-01-05T07:17:45.898Z,6.96
2018-01-05T07:18:46.468Z,6.95
2018-01-05T07:19:47.038Z,6.87
2018-01-05T07:20:47.610Z,6.85
2018-01-05T07:21:48.180Z,6.88
2018-01-05T07:22:48.751Z,6.74
2018-01-05T07:23:49.320Z,6.82
2018-01-05T07:24:49.889Z,6.78
2018-01-05T07:25:50.458Z,6.64
2018-01-05T07:26:51.026Z,6.64
2018-01-05T07:27:51.597Z,6.63
2018-01-05T07:28:52.168Z,6.72
2018-01-05T07:29:52.740Z,6.70
2018-01-05T07:30:53.309Z,6.64
2018-01-05T07:31:53.879Z,6.64
2018-01-05T07:32:54.451Z,6.60
2018-01-05T07:33:55.025Z,6.64
2018-01-05T07:34:55.593Z,6.60
2018-01-05T07:35:56.162Z,6.59
2018-01-05T07:36:56.731Z,6.59
2018-01-05T07:37:57.301Z,6.62
2018-01-05T07:38:57.870Z,6.57
2018-01-05T07:39:58.501Z,6.52
2018-01-05T07:40:59.024Z,6.52
2018-01-05T07:41:59.593Z,6.52
2018-01-05T07:43:00.166Z,6.36
2018-01-05T07:44:00.735Z,6.35
2018-01-05T07:45:01.304Z,6.35
2018-01-05T07:46:01.874Z,6.33
2018-01-05T07:47:02.442Z,6.28
2018-01-05T07:48:03.026Z,6.35
2018-01-05T07:49:03.598Z,6.35
2018-01-05T07:50:04.168Z,6.33
2018-01-05T07:51:04.744Z,6.35
2018-01-05T07:52:05.309Z,6.26
2018-01-05T07:53:05.881Z,6.30
2018-01-05T07:54:06.454Z,6.26
2018-01-05T07:55:07.024Z,6.30
2018-01-05T07:56:07.594Z,6.36
2018-01-05T07:57:08.164Z,6.22
2018-01-05T07:58:08.735Z,6.30
2018-01-05T07:59:09.307Z,6.24
2018-01-05T08:00:09.877Z,6.27
2018-01-05T08:01:10.448Z,6.35
2018-01-05T08:02:11.020Z,6.30
2018-01-05T08:03:11.590Z,6.22
2018-01-05T08:04:12.161Z,6.27
2018-01-05T08:05:12.732Z,6.28
2018-01-05T08:06:13.302Z,6.22
2018-01-05T08:07:13.887Z,6.35
2018-01-05T08:08:14.459Z,6.31
2018-01-05T08:09:15.031Z,6.33
2018-01-05T08:10:15.603Z,6.30
2018-01-05T08:11:16.172Z,6.26
2018-01-05T08:12:16.741Z,6.27
2018-01-05T08:13:17.311Z,6.30
2018-01-05T08:14:17.882Z,6.33
2018-01-05T08:15:18.452Z,6.41
2018-01-05T08:16:19.022Z,6.33
2018-01-05T08:17:19.593Z,6.35
2018-01-05T08:18:20.165Z,6.30
2018-01-05T08:19:20.733Z,6.31
2018-01-05T08:20:21.305Z,6.19
2018-01-05T08:21:21.876Z,6.35
2018-01-05T08:22:22.447Z,6.30
2018-01-05T08:23:23.016Z,6.31
2018-01-05T08:24:23.586Z,6.30
2018-01-05T08:25:24.158Z,6.22
2018-01-05T08:26:24.727Z,6.28
2018-01-05T08:27:25.300Z,6.36
2018-01-05T08:28:25.872Z,6.35
2018-01-05T08:29:26.458Z,6.36
2018-01-05T08:30:27.028Z,6.39
2018-01-05T08:31:27.598Z,6.33
2018-01-05T08:32:28.167Z,6.35
2018-01-05T08:33:28.739Z,6.33
2018-01-05T08:34:29.311Z,6.36
2018-01-05T08:35:29.882Z,6.36
2018-01-05T08:36:30.453Z,6.33
2018-01-05T08:37:31.026Z,6.30
2018-01-05T08:38:31.602Z,6.31
2018-01-05T08:39:32.167Z,6.33
2018-01-05T08:40:32.739Z,6.36
2018-01-05T08:41:33.310Z,6.33
2018-01-05T08:42:33.884Z,6.39
2018-01-05T08:43:34.453Z,6.31
2018-01-05T08:44:35.024Z,6.36
2018-01-05T08:45:35.595Z,6.36
2018-01-05T08:46:36.180Z,6.38
2018-01-05T08:47:36.752Z,6.36
2018-01-05T08:48:37.325Z,6.33
2018-01-05T08:49:37.895Z,6.36
2018-01-05T08:50:38.468Z,6.46
2018-01-05T08:51:39.052Z,6.45
2018-01-05T08:52:39.622Z,6.44
2018-01-05T08:53:40.193Z,6.54
2018-01-05T08:54:40.768Z,6.49
2018-01-05T08:55:41.337Z,6.52
2018-01-05T08:56:41.909Z,6.54
2018-01-05T08:57:42.481Z,6.51
2018-01-05T08:58:43.067Z,6.51
2018-01-05T08:59:43.638Z,6.57
2018-01-05T09:00:44.210Z,6.57
2018-01-05T09:01:44.782Z,6.60
2018-01-05T09:02:45.354Z,6.59
2018-01-05T09:03:45.931Z,6.51
2018-01-05T09:04:46.499Z,6.57
2018-01-05T09:05:47.071Z,6.60
2018-01-05T09:06:47.643Z,6.57
2018-01-05T09:07:48.214Z,6.54
2018-01-05T09:08:48.786Z,6.63
2018-01-05T09:09:49.359Z,6.66
2018-01-05T09:10:49.946Z,6.66
2018-01-05T09:11:50.518Z,6.67
2018-01-05T09:12:51.090Z,6.70
2018-01-05T09:13:51.661Z,6.70
2018-01-05T09:14:52.248Z,6.67
2018-01-05T09:15:52.819Z,6.81
2018-01-05T09:16:53.397Z,6.72
2018-01-05T09:17:53.965Z,6.78
2018-01-05T09:18:54.542Z,6.78
2018-01-05T09:19:55.110Z,6.74
2018-01-05T09:20:55.682Z,6.79
2018-01-05T09:21:56.254Z,6.77
2018-01-05T09:22:56.826Z,6.77
2018-01-05T09:23:57.398Z,6.74
2018-01-05T09:24:57.970Z,6.79
2018-01-05T09:25:58.542Z,6.69
2018-01-05T09:26:59.114Z,6.74
2018-01-05T09:27:59.688Z,6.84
2018-01-05T09:29:00.261Z,6.77
2018-01-05T09:30:00.846Z,6.79
2018-01-05T09:31:01.418Z,6.81
2018-01-05T09:32:02.001Z,6.82
2018-01-05T09:33:02.573Z,6.85
2018-01-05T09:34:03.145Z,6.82
2018-01-05T09:35:03.718Z,6.84
2018-01-05T09:36:04.290Z,6.84
2018-01-05T09:37:04.862Z,6.89
2018-01-05T09:38:05.435Z,6.92
2018-01-05T09:39:06.024Z,6.85
2018-01-05T09:40:06.596Z,6.89
2018-01-05T09:41:07.169Z,6.89
2018-01-05T09:42:07.756Z,6.95
2018-01-05T09:43:08.329Z,7.00
2018-01-05T09:44:08.906Z,6.96
2018-01-05T09:45:09.472Z,6.96
2018-01-05T09:46:10.054Z,7.00
2018-01-05T09:47:10.624Z,6.99
2018-01-05T09:48:11.196Z,7.05
2018-01-05T09:49:11.770Z,7.06
2018-01-05T09:50:12.345Z,7.06
2018-01-05T09:51:12.913Z,7.07
2018-01-05T09:52:13.486Z,7.06
2018-01-05T09:53:14.059Z,7.07
2018-01-05T09:54:14.631Z,7.10
2018-01-05T09:55:15.203Z,7.02
2018-01-05T09:56:15.775Z,7.14
2018-01-05T09:57:16.348Z,7.03
2018-01-05T09:58:16.918Z,7.17
2018-01-05T09:59:17.490Z,7.17
2018-01-05T10:00:18.062Z,7.20
2018-01-05T10:01:18.634Z,7.17
2018-01-05T10:02:19.223Z,7.14
2018-01-05T10:03:19.793Z,7.18
2018-01-05T10:04:20.387Z,7.25
2018-01-05T10:05:20.938Z,7.32
2018-01-05T10:06:21.525Z,7.31
2018-01-05T10:07:22.099Z,7.35
2018-01-05T10:08:22.672Z,7.29
2018-01-05T10:09:23.244Z,7.31
2018-01-05T10:10:23.818Z,7.32
2018-01-05T10:11:24.391Z,7.47
2018-01-05T10:12:24.965Z,7.43
2018-01-05T10:13:25.550Z,7.47
2018-01-05T10:14:26.125Z,7.50
2018-01-05T10:15:26.697Z,7.47
2018-01-05T10:16:27.270Z,7.45
2018-01-05T10:17:27.846Z,7.53
2018-01-05T10:18:28.419Z,7.43
2018-01-05T10:19:28.992Z,7.56
2018-01-05T10:20:29.566Z,7.51
2018-01-05T10:21:30.139Z,7.56
2018-01-05T10:22:30.712Z,7.54
2018-01-05T10:23:31.288Z,7.66
2018-01-05T10:24:31.860Z,7.69
2018-01-05T10:25:32.433Z,7.63
2018-01-05T10:26:33.008Z,7.73
2018-01-05T10:27:33.582Z,7.72
2018-01-05T10:28:34.153Z,7.69
2018-01-05T10:29:34.727Z,7.79
2018-01-05T10:30:35.300Z,7.73
2018-01-05T10:31:35.873Z,7.72
2018-01-05T10:32:36.447Z,7.76
2018-01-05T10:33:37.021Z,7.77
2018-01-05T10:34:37.596Z,7.83
2018-01-05T10:35:38.171Z,7.85
2018-01-05T10:36:38.743Z,7.91
2018-01-05T10:37:39.330Z,7.91
2018-01-05T10:38:39.918Z,7.87
2018-01-05T10:39:40.491Z,7.76
2018-01-05T10:40:41.064Z,7.87
2018-01-05T10:41:41.637Z,7.85
2018-01-05T10:42:42.210Z,7.85
2018-01-05T10:43:42.782Z,7.82
2018-01-05T10:44:43.370Z,7.85
2018-01-05T10:45:43.943Z,7.97
2018-01-05T10:46:44.519Z,8.00
2018-01-05T10:47:45.155Z,7.97
2018-01-05T10:48:45.679Z,7.93
2018-01-05T10:49:46.252Z,7.94
2018-01-05T10:50:46.827Z,7.94
2018-01-05T10:51:47.400Z,7.95
2018-01-05T10:52:47.973Z,7.98
2018-01-05T10:53:48.549Z,8.03
2018-01-05T10:54:49.122Z,8.06
2018-01-05T10:55:49.695Z,8.09
2018-01-05T10:56:50.271Z,8.15
2018-01-05T10:57:50.845Z,8.13
2018-01-05T10:58:51.416Z,8.26
2018-01-05T10:59:51.988Z,8.18
2018-01-05T11:00:52.563Z,8.19
2018-01-05T11:01:53.138Z,8.23
2018-01-05T11:02:53.712Z,8.16
2018-01-05T11:03:54.286Z,8.24
2018-01-05T11:04:54.860Z,8.18
2018-01-05T11:05:55.448Z,8.23
2018-01-05T11:06:56.021Z,8.23
2018-01-05T11:07:56.593Z,8.18
2018-01-05T11:08:57.169Z,8.30
2018-01-05T11:09:57.742Z,8.28
2018-01-05T11:10:58.316Z,8.31
2018-01-05T11:11:58.892Z,8.28
2018-01-05T11:12:59.517Z,8.38
2018-01-05T11:14:00.042Z,8.36
2018-01-05T11:15:00.625Z,8.33
2018-01-05T11:16:01.201Z,8.36
2018-01-05T11:17:01.775Z,8.24
2018-01-05T11:18:02.348Z,8.46
2018-01-05T11:19:02.924Z,8.33
2018-01-05T11:20:03.498Z,8.34
2018-01-05T11:21:04.072Z,8.33
2018-01-05T11:22:04.647Z,8.31
2018-01-05T11:23:05.220Z,8.42
2018-01-05T11:24:05.795Z,8.36
2018-01-05T11:25:06.369Z,8.37
2018-01-05T11:26:06.958Z,8.42
2018-01-05T11:27:07.531Z,8.46
2018-01-05T11:28:08.106Z,8.44
2018-01-05T11:29:08.682Z,8.44
2018-01-05T11:30:09.255Z,8.45
2018-01-05T11:31:09.830Z,8.42
2018-01-05T11:32:10.407Z,8.51
2018-01-05T11:33:10.980Z,8.44
2018-01-05T11:34:11.555Z,8.52
2018-01-05T11:35:12.132Z,8.48
2018-01-05T11:36:12.705Z,8.51
2018-01-05T11:37:13.279Z,8.53
2018-01-05T11:38:13.866Z,8.46
2018-01-05T11:39:14.447Z,8.53
2018-01-05T11:40:15.015Z,8.63
2018-01-05T11:41:15.590Z,8.56
2018-01-05T11:42:16.166Z,8.58
2018-01-05T11:43:16.738Z,8.53
2018-01-05T11:44:17.312Z,8.58
2018-01-05T11:45:17.888Z,8.60
2018-01-05T11:46:18.462Z,8.60
2018-01-05T11:47:19.037Z,8.66
2018-01-05T11:48:19.613Z,8.60
2018-01-05T11:49:20.186Z,8.69
2018-01-05T11:50:20.760Z,8.64
2018-01-05T11:51:21.337Z,8.61
2018-01-05T11:52:21.924Z,8.74
2018-01-05T11:53:22.498Z,8.74
2018-01-05T11:54:23.073Z,8.60
2018-01-05T11:55:23.649Z,8.67
2018-01-05T11:56:24.222Z,8.74
2018-01-05T11:57:24.797Z,8.70
2018-01-05T11:58:25.372Z,8.74
2018-01-05T11:59:25.949Z,8.60
2018-01-05T12:00:26.520Z,8.71
2018-01-05T12:01:27.097Z,8.71
2018-01-05T12:02:27.685Z,8.71
2018-01-05T12:03:28.259Z,8.73
2018-01-05T12:04:28.833Z,8.70
2018-01-05T12:05:29.409Z,8.71
2018-01-05T12:06:29.983Z,8.73
2018-01-05T12:07:30.558Z,8.81
2018-01-05T12:08:31.132Z,8.85
2018-01-05T12:09:31.725Z,8.87
2018-01-05T12:10:32.296Z,8.87
2018-01-05T12:11:32.871Z,8.84
2018-01-05T12:12:33.446Z,8.81
2018-01-05T12:13:34.019Z,8.89
2018-01-05T12:14:34.593Z,8.84
2018-01-05T12:15:35.168Z,8.92
2018-01-05T12:16:35.742Z,8.81
2018-01-05T12:17:36.318Z,8.92
2018-01-05T12:18:36.894Z,8.89
2018-01-05T12:19:37.469Z,8.92
2018-01-05T12:20:38.048Z,8.94
2018-01-05T12:21:38.618Z,9.08
2018-01-05T12:22:39.207Z,8.99
2018-01-05T12:23:39.780Z,8.95
2018-01-05T12:24:40.355Z,8.92
2018-01-05T12:25:40.932Z,8.92
2018-01-05T12:26:41.504Z,9.02
2018-01-05T12:27:42.079Z,8.95
2018-01-05T12:28:42.656Z,8.97
2018-01-05T12:29:43.230Z,9.03
2018-01-05T12:30:43.804Z,9.02
2018-01-05T12:31:44.381Z,9.02
2018-01-05T12:32:44.955Z,9.02
2018-01-05T12:33:45.528Z,9.02
2018-01-05T12:34:46.106Z,9.06
2018-01-05T12:35:46.680Z,9.08
2018-01-05T12:36:47.255Z,9.04
2018-01-05T12:37:47.830Z,9.06
2018-01-05T12:38:48.404Z,9.19
2018-01-05T12:39:48.992Z,9.19
2018-01-05T12:40:49.567Z,9.06
2018-01-05T12:41:50.142Z,9.10
2018-01-05T12:42:50.718Z,9.06
2018-01-05T12:43:51.296Z,9.08
2018-01-05T12:44:51.884Z,9.08
2018-01-05T12:45:52.466Z,9.14
2018-01-05T12:46:53.041Z,9.10
2018-01-05T12:47:53.613Z,9.02
2018-01-05T12:48:54.185Z,9.06
2018-01-05T12:49:54.759Z,9.11
2018-01-05T12:50:55.333Z,9.10
2018-01-05T12:51:55.908Z,9.10
2018-01-05T12:52:56.482Z,9.10
2018-01-05T12:53:57.058Z,9.16
2018-01-05T12:54:57.631Z,9.11
2018-01-05T12:55:58.203Z,9.19
2018-01-05T12:56:58.775Z,9.14
2018-01-05T12:57:59.351Z,9.13
2018-01-05T12:58:59.937Z,9.23
2018-01-05T13:00:00.502Z,9.22
2018-01-05T13:01:01.091Z,9.21
2018-01-05T13:02:01.664Z,9.25
2018-01-05T13:03:02.238Z,9.23
2018-01-05T13:04:02.813Z,9.22
2018-01-05T13:05:03.385Z,9.19
2018-01-05T13:06:03.960Z,9.22
2018-01-05T13:07:04.536Z,9.26
2018-01-05T13:08:05.110Z,9.22
2018-01-05T13:09:05.698Z,9.22
2018-01-05T13:10:06.272Z,9.22
2018-01-05T13:11:06.845Z,9.28
2018-01-05T13:12:07.426Z,9.22
2018-01-05T13:13:07.990Z,9.22
2018-01-05T13:14:08.565Z,9.22
2018-01-05T13:15:09.149Z,9.25
2018-01-05T13:16:09.735Z,9.25
2018-01-05T13:17:10.308Z,9.32
2018-01-05T13:18:10.882Z,9.23
2018-01-05T13:19:11.469Z,9.21
2018-01-05T13:20:12.042Z,9.19
2018-01-05T13:21:12.616Z,9.23
2018-01-05T13:22:13.187Z,9.23
2018-01-05T13:23:13.761Z,9.25
2018-01-05T13:24:14.347Z,9.23
2018-01-05T13:25:14.918Z,9.22
2018-01-05T13:26:15.492Z,9.21